createdAt,value
2022-10-05T00:01:48.616Z,100.00
2022-10-05T00:04:21.227Z,100.00
2022-10-05T00:06:55.776Z,100.00
2022-10-05T00:09:22.538Z,100.00
2022-10-05T00:11:50.931Z,100.00
2022-10-05T00:14:27.663Z,100.00
2022-10-05T00:16:55.243Z,100.00
2022-10-05T00:19:27.132Z,100.00
2022-10-05T00:21:58.482Z,100.00
2022-10-05T00:24:25.047Z,100.00
2022-10-05T00:26:56.908Z,100.00
2022-10-05T00:29:24.201Z,100.00
2022-10-05T00:31:50.706Z,100.00
2022-10-05T00:34:17.850Z,100.00
2022-10-05T00:36:45.629Z,100.00
2022-10-05T00:39:12.287Z,100.00
2022-10-05T00:42:17.128Z,100.00
2022-10-05T00:44:58.858Z,100.00
2022-10-05T00:47:28.000Z,100.00
2022-10-05T00:50:32.077Z,100.00
2022-10-05T00:53:16.264Z,100.00
2022-10-05T00:56:04.330Z,100.00
2022-10-05T00:58:33.693Z,100.00
2022-10-05T01:01:11.949Z,100.00
2022-10-05T01:04:09.344Z,100.00
2022-10-05T01:06:52.942Z,100.00
2022-10-05T01:09:41.193Z,100.00
2022-10-05T01:12:17.131Z,100.00
2022-10-05T01:15:04.459Z,100.00
2022-10-05T01:17:42.174Z,100.00
2022-10-05T01:20:42.548Z,100.00
2022-10-05T01:23:45.721Z,100.00
2022-10-05T01:26:37.559Z,100.00
2022-10-05T01:29:06.793Z,100.00
2022-10-05T01:31:45.220Z,100.00
2022-10-05T01:34:29.832Z,100.00
2022-10-05T01:37:02.201Z,100.00
2022-10-05T01:39:42.029Z,100.00
2022-10-05T01:42:33.080Z,100.00
2022-10-05T01:45:23.036Z,100.00
2022-10-05T01:48:17.608Z,100.00
2022-10-05T01:51:02.806Z,100.00
2022-10-05T01:53:46.096Z,100.00
2022-10-05T01:56:22.555Z,100.00
2022-10-05T01:59:01.700Z,100.00
2022-10-05T02:01:38.815Z,100.00
2022-10-05T02:04:59.910Z,100.00
2022-10-05T02:07:23.273Z,100.00
2022-10-05T02:10:00.049Z,100.00
2022-10-05T02:12:31.306Z,100.00
2022-10-05T02:15:07.956Z,100.00
2022-10-05T02:17:42.457Z,100.00
2022-10-05T02:20:14.111Z,100.00
2022-10-05T02:22:47.428Z,100.00
2022-10-05T02:25:17.515Z,100.00
2022-10-05T02:28:08.331Z,100.00
2022-10-05T02:30:43.175Z,100.00
2022-10-05T02:33:18.994Z,100.00
2022-10-05T02:35:45.599Z,100.00
2022-10-05T02:38:26.915Z,100.00
2022-10-05T02:41:21.656Z,100.00
2022-10-05T02:43:59.771Z,100.00
2022-10-05T02:46:38.988Z,100.00
2022-10-05T02:49:35.258Z,100.00
2022-10-05T02:52:25.449Z,100.00
2022-10-05T02:55:10.793Z,100.00
2022-10-05T02:58:04.143Z,100.00
2022-10-05T03:00:36.702Z,100.00
2022-10-05T03:03:13.161Z,100.00
2022-10-05T03:05:46.719Z,100.00
2022-10-05T03:08:28.305Z,100.00
2022-10-05T03:11:08.585Z,100.00
2022-10-05T03:13:54.592Z,100.00
2022-10-05T03:16:43.862Z,100.00
2022-10-05T03:19:50.934Z,100.00
2022-10-05T03:22:48.485Z,100.00
2022-10-05T03:25:21.360Z,100.00
2022-10-05T03:27:50.839Z,100.00
2022-10-05T03:30:22.062Z,100.00
2022-10-05T03:32:57.838Z,100.00
2022-10-05T03:35:48.835Z,100.00
2022-10-05T03:38:17.835Z,100.00
2022-10-05T03:40:46.461Z,100.00
2022-10-05T03:43:44.077Z,100.00
2022-10-05T03:46:44.791Z,100.00
2022-10-05T03:49:50.077Z,100.00
2022-10-05T03:52:22.575Z,100.00
2022-10-05T03:55:05.584Z,100.00
2022-10-05T03:57:38.193Z,100.00
2022-10-05T04:00:13.928Z,100.00
2022-10-05T04:02:47.599Z,100.00
2022-10-05T04:05:18.928Z,100.00
2022-10-05T04:07:52.139Z,100.00
2022-10-05T04:10:33.200Z,100.00
2022-10-05T04:13:06.762Z,100.00
2022-10-05T04:16:00.880Z,100.00
2022-10-05T04:18:38.454Z,100.00
2022-10-05T04:21:11.727Z,100.00
2022-10-05T04:23:55.444Z,100.00
2022-10-05T04:26:45.272Z,100.00
2022-10-05T04:29:11.819Z,100.00
2022-10-05T04:32:09.235Z,100.00
2022-10-05T04:34:49.613Z,100.00
2022-10-05T04:37:42.066Z,100.00
2022-10-05T04:40:23.908Z,100.00
2022-10-05T04:43:14.767Z,100.00
2022-10-05T04:46:24.487Z,100.00
2022-10-05T04:49:35.860Z,100.00
2022-10-05T04:52:32.834Z,100.00
2022-10-05T04:55:39.356Z,100.00
2022-10-05T04:58:31.127Z,100.00
2022-10-05T05:01:35.975Z,100.00
2022-10-05T05:04:24.366Z,100.00
2022-10-05T05:07:11.091Z,100.00
2022-10-05T05:09:52.461Z,100.00
2022-10-05T05:12:46.791Z,100.00
2022-10-05T05:15:37.406Z,100.00
2022-10-05T05:18:33.363Z,100.00
2022-10-05T05:21:21.729Z,100.00
2022-10-05T05:24:27.896Z,100.00
2022-10-05T05:27:23.263Z,100.00
2022-10-05T05:29:58.435Z,100.00
2022-10-05T05:32:33.682Z,100.00
2022-10-05T05:35:08.912Z,100.00
2022-10-05T05:38:04.717Z,100.00
2022-10-05T05:40:44.038Z,100.00
2022-10-05T05:43:24.269Z,100.00
2022-10-05T05:45:56.575Z,100.00
2022-10-05T05:48:41.236Z,100.00
2022-10-05T05:51:16.136Z,100.00
2022-10-05T05:53:53.874Z,100.00
2022-10-05T05:56:36.237Z,100.00
2022-10-05T05:59:14.375Z,100.00
2022-10-05T06:01:47.432Z,100.00
2022-10-05T06:04:26.830Z,100.00
2022-10-05T06:06:56.116Z,100.00
2022-10-05T06:09:25.804Z,100.00
2022-10-05T06:11:56.184Z,100.00
2022-10-05T06:14:25.922Z,100.00
2022-10-05T06:17:03.108Z,100.00
2022-10-05T06:19:33.572Z,100.00
2022-10-05T06:22:14.941Z,100.00
2022-10-05T06:25:20.798Z,100.00
2022-10-05T06:28:09.922Z,100.00
2022-10-05T06:31:14.503Z,100.00
2022-10-05T06:33:50.874Z,100.00
2022-10-05T06:36:28.057Z,100.00
2022-10-05T06:39:24.905Z,100.00
2022-10-05T06:41:57.079Z,100.00
2022-10-05T06:44:33.474Z,100.00
2022-10-05T06:47:33.989Z,100.00
2022-10-05T06:50:21.498Z,100.00
2022-10-05T06:53:13.307Z,100.00
2022-10-05T06:55:50.637Z,100.00
2022-10-05T06:59:01.933Z,100.00
2022-10-05T07:01:31.430Z,100.00
2022-10-05T07:04:10.227Z,100.00
2022-10-05T07:06:57.715Z,100.00
2022-10-05T07:09:43.461Z,100.00
2022-10-05T07:12:40.105Z,100.00
2022-10-05T07:15:27.382Z,100.00
2022-10-05T07:18:21.916Z,100.00
2022-10-05T07:21:06.823Z,100.00
2022-10-05T07:23:52.693Z,100.00
2022-10-05T07:26:23.712Z,100.00
2022-10-05T07:28:54.361Z,100.00
2022-10-05T07:31:35.020Z,100.00
2022-10-05T07:34:09.652Z,100.00
2022-10-05T07:37:03.168Z,100.00
2022-10-05T07:40:09.997Z,100.00
2022-10-05T07:42:58.467Z,100.00
2022-10-05T07:45:44.517Z,100.00
2022-10-05T07:48:20.526Z,100.00
2022-10-05T07:50:57.793Z,100.00
2022-10-05T07:53:45.277Z,100.00
2022-10-05T07:56:29.453Z,100.00
2022-10-05T07:59:03.550Z,100.00
2022-10-05T08:01:35.304Z,100.00
2022-10-05T08:04:28.959Z,100.00
2022-10-05T08:07:05.585Z,100.00
2022-10-05T08:09:48.194Z,100.00
2022-10-05T08:12:35.888Z,100.00
2022-10-05T08:15:11.289Z,100.00
2022-10-05T08:17:56.801Z,100.00
2022-10-05T08:20:34.856Z,100.00
2022-10-05T08:23:45.939Z,100.00
2022-10-05T08:26:22.152Z,100.00
2022-10-05T08:29:27.289Z,100.00
2022-10-05T08:32:18.647Z,100.00
2022-10-05T08:35:03.920Z,100.00
2022-10-05T08:37:36.280Z,100.00
2022-10-05T08:40:11.819Z,100.00
2022-10-05T08:43:01.512Z,100.00
2022-10-05T08:45:46.838Z,100.00
2022-10-05T08:48:45.772Z,100.00
2022-10-05T08:51:45.523Z,100.00
2022-10-05T08:54:20.837Z,100.00
2022-10-05T08:57:14.583Z,100.00
2022-10-05T08:59:58.326Z,100.00
2022-10-05T09:02:42.898Z,100.00
2022-10-05T09:05:15.448Z,100.00
2022-10-05T09:08:16.142Z,100.00
2022-10-05T09:10:45.201Z,100.00
2022-10-05T09:13:11.661Z,100.00
2022-10-05T09:15:59.181Z,100.00
2022-10-05T09:18:52.664Z,100.00
2022-10-05T09:21:31.831Z,100.00
2022-10-05T09:24:24.793Z,100.00
2022-10-05T09:27:03.276Z,100.00
2022-10-05T09:29:41.730Z,98.98
2022-10-05T09:32:44.283Z,100.00
2022-10-05T09:35:20.594Z,100.00
2022-10-05T09:37:57.823Z,100.00
2022-10-05T09:40:48.996Z,100.00
2022-10-05T09:43:27.437Z,99.96
2022-10-05T09:46:32.358Z,100.00
2022-10-05T09:49:33.126Z,97.52
2022-10-05T09:51:59.444Z,97.22
2022-10-05T09:54:59.940Z,96.31
2022-10-05T09:57:49.384Z,96.94
2022-10-05T10:00:29.059Z,95.20
2022-10-05T10:03:07.758Z,92.73
2022-10-05T10:05:34.063Z,91.65
2022-10-05T10:08:12.558Z,91.90
2022-10-05T10:10:51.044Z,89.31
2022-10-05T10:13:35.795Z,88.75
2022-10-05T10:16:13.464Z,88.01
2022-10-05T10:19:10.289Z,87.15
2022-10-05T10:22:01.712Z,86.45
2022-10-05T10:24:43.311Z,85.41
2022-10-05T10:27:21.493Z,82.05
2022-10-05T10:29:56.758Z,80.53
2022-10-05T10:32:41.687Z,80.16
2022-10-05T10:35:20.351Z,81.07
2022-10-05T10:37:53.153Z,80.91
2022-10-05T10:40:56.852Z,79.06
2022-10-05T10:43:47.998Z,78.07
2022-10-05T10:46:28.883Z,77.14
2022-10-05T10:49:12.477Z,79.44
2022-10-05T10:52:21.997Z,78.83
2022-10-05T10:55:22.019Z,76.80
2022-10-05T10:58:22.299Z,72.86
2022-10-05T11:01:06.622Z,72.52
2022-10-05T11:03:51.701Z,72.79
2022-10-05T11:06:26.344Z,73.48
2022-10-05T11:09:14.753Z,66.14
2022-10-05T11:11:44.033Z,66.07
2022-10-05T11:14:28.367Z,67.55
2022-10-05T11:17:26.583Z,65.61
2022-10-05T11:20:30.468Z,64.72
2022-10-05T11:23:39.183Z,62.00
2022-10-05T11:26:25.176Z,62.44
2022-10-05T11:29:19.885Z,60.06
2022-10-05T11:32:07.551Z,59.90
2022-10-05T11:34:49.003Z,61.70
2022-10-05T11:37:38.883Z,60.71
2022-10-05T11:40:33.005Z,60.48
2022-10-05T11:43:38.210Z,60.29
2022-10-05T11:46:04.710Z,60.38
2022-10-05T11:48:42.759Z,62.18
2022-10-05T11:51:28.891Z,56.46
2022-10-05T11:54:23.017Z,61.05
2022-10-05T11:57:04.024Z,62.48
2022-10-05T11:59:38.642Z,57.97
2022-10-05T12:02:23.671Z,59.96
2022-10-05T12:05:17.592Z,57.77
2022-10-05T12:08:01.132Z,58.60
2022-10-05T12:10:52.442Z,59.02
2022-10-05T12:13:46.490Z,56.76
2022-10-05T12:16:22.896Z,58.35
2022-10-05T12:18:58.036Z,57.09
2022-10-05T12:21:50.246Z,59.36
2022-10-05T12:24:48.225Z,58.15
2022-10-05T12:27:22.456Z,59.30
2022-10-05T12:30:14.854Z,57.92
2022-10-05T12:32:51.996Z,56.27
2022-10-05T12:35:36.559Z,57.14
2022-10-05T12:38:26.540Z,60.36
2022-10-05T12:41:09.088Z,57.75
2022-10-05T12:43:45.362Z,56.29
2022-10-05T12:46:33.294Z,56.04
2022-10-05T12:49:10.565Z,56.86
2022-10-05T12:51:43.165Z,57.60
2022-10-05T12:54:27.539Z,55.50
2022-10-05T12:56:56.762Z,57.83
2022-10-05T12:59:34.883Z,59.00
2022-10-05T13:02:15.335Z,57.70
2022-10-05T13:04:52.232Z,57.91
2022-10-05T13:07:46.446Z,58.41
2022-10-05T13:10:21.625Z,58.22
2022-10-05T13:13:16.226Z,54.87
2022-10-05T13:16:06.696Z,57.60
2022-10-05T13:18:57.759Z,57.55
2022-10-05T13:21:38.091Z,57.50
2022-10-05T13:24:23.286Z,56.86
2022-10-05T13:26:56.692Z,57.58
2022-10-05T13:29:39.643Z,58.51
2022-10-05T13:32:21.279Z,59.15
2022-10-05T13:35:15.501Z,59.71
2022-10-05T13:37:55.493Z,59.82
2022-10-05T13:40:24.926Z,58.28
2022-10-05T13:42:59.874Z,56.24
2022-10-05T13:45:32.053Z,56.41
2022-10-05T13:48:18.820Z,52.36
2022-10-05T13:50:58.876Z,50.39
2022-10-05T13:53:34.458Z,50.00
2022-10-05T13:56:17.797Z,50.11
2022-10-05T13:59:12.142Z,45.93
2022-10-05T14:01:58.618Z,43.72
2022-10-05T14:04:30.506Z,42.23
2022-10-05T14:07:13.509Z,40.31
2022-10-05T14:09:48.271Z,40.31
2022-10-05T14:12:20.838Z,40.55
2022-10-05T14:14:56.651Z,37.84
2022-10-05T14:17:43.348Z,37.59
2022-10-05T14:20:32.901Z,37.16
2022-10-05T14:23:13.199Z,38.87
2022-10-05T14:25:51.540Z,38.94
2022-10-05T14:28:28.893Z,39.29
2022-10-05T14:31:03.487Z,39.55
2022-10-05T14:33:32.680Z,39.54
2022-10-05T14:35:59.854Z,39.90
2022-10-05T14:38:48.910Z,40.04
2022-10-05T14:41:18.583Z,41.61
2022-10-05T14:44:02.284Z,38.31
2022-10-05T14:46:31.373Z,39.71
2022-10-05T14:49:26.331Z,38.55
2022-10-05T14:51:54.439Z,38.07
2022-10-05T14:54:25.640Z,38.17
2022-10-05T14:57:05.819Z,38.18
2022-10-05T14:59:53.059Z,40.24
2022-10-05T15:02:53.537Z,42.47
2022-10-05T15:05:25.238Z,41.73
2022-10-05T15:07:56.156Z,42.73
2022-10-05T15:10:42.991Z,42.50
2022-10-05T15:13:15.394Z,43.67
2022-10-05T15:15:54.275Z,44.23
2022-10-05T15:18:42.043Z,44.33
2022-10-05T15:21:39.692Z,44.92
2022-10-05T15:24:13.158Z,45.17
2022-10-05T15:26:52.102Z,44.85
2022-10-05T15:30:01.938Z,45.80
2022-10-05T15:32:39.398Z,46.74
2022-10-05T15:35:33.499Z,48.27
2022-10-05T15:38:06.595Z,49.52
2022-10-05T15:40:49.032Z,49.46
2022-10-05T15:43:19.655Z,49.69
2022-10-05T15:46:10.142Z,50.44
2022-10-05T15:48:44.690Z,50.97
2022-10-05T15:51:35.467Z,52.04
2022-10-05T15:54:17.920Z,52.04
2022-10-05T15:56:53.045Z,51.91
2022-10-05T15:59:31.301Z,53.09
2022-10-05T16:02:00.946Z,46.77
2022-10-05T16:04:44.888Z,46.27
2022-10-05T16:07:22.094Z,46.17
2022-10-05T16:09:59.800Z,47.29
2022-10-05T16:12:39.115Z,46.92
2022-10-05T16:15:14.707Z,47.69
2022-10-05T16:17:49.388Z,48.63
2022-10-05T16:20:18.574Z,48.39
2022-10-05T16:23:09.250Z,47.61
2022-10-05T16:26:12.632Z,49.96
2022-10-05T16:28:45.830Z,51.16
2022-10-05T16:31:18.190Z,51.06
2022-10-05T16:34:09.449Z,53.03
2022-10-05T16:37:03.503Z,53.88
2022-10-05T16:39:50.229Z,56.22
2022-10-05T16:42:24.399Z,57.64
2022-10-05T16:45:10.826Z,60.74
2022-10-05T16:47:47.608Z,62.18
2022-10-05T16:50:37.800Z,65.02
2022-10-05T16:53:30.416Z,69.02
2022-10-05T16:56:04.297Z,71.01
2022-10-05T16:58:43.053Z,72.06
2022-10-05T17:01:48.269Z,73.00
2022-10-05T17:04:40.439Z,74.75
2022-10-05T17:07:46.137Z,75.36
2022-10-05T17:10:45.336Z,78.15
2022-10-05T17:13:23.534Z,80.19
2022-10-05T17:16:34.438Z,84.17
2022-10-05T17:19:12.979Z,84.54
2022-10-05T17:21:50.253Z,85.46
2022-10-05T17:24:38.616Z,85.06
2022-10-05T17:27:34.274Z,87.34
2022-10-05T17:30:31.661Z,88.67
2022-10-05T17:33:00.849Z,93.92
2022-10-05T17:35:42.783Z,93.87
2022-10-05T17:38:18.853Z,94.87
2022-10-05T17:41:00.887Z,96.42
2022-10-05T17:43:29.643Z,97.99
2022-10-05T17:45:58.694Z,98.50
2022-10-05T17:48:41.857Z,99.79
2022-10-05T17:51:37.732Z,100.00
2022-10-05T17:54:25.325Z,100.00
2022-10-05T17:56:57.698Z,100.00
2022-10-05T17:59:42.641Z,100.00
2022-10-05T18:02:20.534Z,100.00
2022-10-05T18:05:09.804Z,100.00
2022-10-05T18:07:38.372Z,100.00
2022-10-05T18:10:10.952Z,100.00
2022-10-05T18:12:38.097Z,100.00
2022-10-05T18:15:08.068Z,100.00
2022-10-05T18:17:51.372Z,100.00
2022-10-05T18:20:19.748Z,100.00
2022-10-05T18:22:47.308Z,100.00
2022-10-05T18:25:27.535Z,100.00
2022-10-05T18:28:05.151Z,100.00
2022-10-05T18:31:12.210Z,100.00
2022-10-05T18:34:17.341Z,100.00
2022-10-05T18:37:21.181Z,100.00
2022-10-05T18:39:50.447Z,100.00
2022-10-05T18:42:39.251Z,100.00
2022-10-05T18:45:32.367Z,100.00
2022-10-05T18:48:23.826Z,100.00
2022-10-05T18:50:58.291Z,100.00
2022-10-05T18:53:42.548Z,100.00
2022-10-05T18:56:34.518Z,100.00
2022-10-05T18:59:19.625Z,100.00
2022-10-05T19:01:59.472Z,100.00
2022-10-05T19:05:04.898Z,100.00
2022-10-05T19:07:37.643Z,100.00
2022-10-05T19:10:08.385Z,100.00
2022-10-05T19:12:38.116Z,100.00
2022-10-05T19:15:33.992Z,100.00
2022-10-05T19:18:15.526Z,100.00
2022-10-05T19:20:54.279Z,100.00
2022-10-05T19:23:23.916Z,100.00
2022-10-05T19:25:50.606Z,100.00
2022-10-05T19:28:36.907Z,100.00
2022-10-05T19:31:20.073Z,100.00
2022-10-05T19:33:58.426Z,100.00
2022-10-05T19:36:57.192Z,100.00
2022-10-05T19:39:57.295Z,100.00
2022-10-05T19:42:49.335Z,100.00
2022-10-05T19:45:22.615Z,100.00
2022-10-05T19:48:08.096Z,100.00
2022-10-05T19:50:37.512Z,100.00
2022-10-05T19:53:13.193Z,100.00
2022-10-05T19:55:42.570Z,100.00
2022-10-05T19:58:24.675Z,100.00
2022-10-05T20:01:02.177Z,100.00
2022-10-05T20:03:31.029Z,100.00
2022-10-05T20:06:03.158Z,100.00
2022-10-05T20:08:41.050Z,100.00
2022-10-05T20:11:24.145Z,100.00
2022-10-05T20:14:13.517Z,100.00
2022-10-05T20:16:39.994Z,100.00
2022-10-05T20:19:34.511Z,100.00
2022-10-05T20:22:29.472Z,100.00
2022-10-05T20:25:01.433Z,100.00
2022-10-05T20:27:46.930Z,100.00
2022-10-05T20:30:19.069Z,100.00
2022-10-05T20:32:53.964Z,100.00
2022-10-05T20:35:20.814Z,100.00
2022-10-05T20:37:47.140Z,100.00
2022-10-05T20:40:13.452Z,100.00
2022-10-05T20:42:39.929Z,100.00
2022-10-05T20:45:06.704Z,100.00
2022-10-05T20:47:33.183Z,100.00
2022-10-05T20:49:59.613Z,100.00
2022-10-05T20:52:26.141Z,100.00
2022-10-05T20:54:52.565Z,100.00
2022-10-05T20:57:19.737Z,100.00
2022-10-05T20:59:46.276Z,100.00
2022-10-05T21:02:12.724Z,100.00
2022-10-05T21:04:41.215Z,100.00
2022-10-05T21:07:08.088Z,100.00
2022-10-05T21:09:35.759Z,100.00
2022-10-05T21:12:02.217Z,100.00
2022-10-05T21:14:28.860Z,100.00
2022-10-05T21:16:55.194Z,100.00
2022-10-05T21:19:21.728Z,100.00
2022-10-05T21:21:48.140Z,100.00
2022-10-05T21:24:15.455Z,100.00
2022-10-05T21:26:43.199Z,100.00
2022-10-05T21:29:12.685Z,100.00
2022-10-05T21:31:40.213Z,100.00
2022-10-05T21:34:07.478Z,100.00
2022-10-05T21:36:34.145Z,100.00
2022-10-05T21:39:00.952Z,100.00
2022-10-05T21:41:27.760Z,100.00
2022-10-05T21:43:54.295Z,100.00
2022-10-05T21:46:24.247Z,100.00
2022-10-05T21:48:50.672Z,100.00
2022-10-05T21:51:19.274Z,100.00
2022-10-05T21:53:54.853Z,100.00
2022-10-05T21:56:25.660Z,100.00
2022-10-05T21:58:52.264Z,100.00
2022-10-05T22:01:22.445Z,100.00
2022-10-05T22:03:49.842Z,100.00
2022-10-05T22:06:16.143Z,100.00
2022-10-05T22:08:42.591Z,100.00
2022-10-05T22:11:17.331Z,100.00
2022-10-05T22:13:46.866Z,100.00
2022-10-05T22:16:14.867Z,100.00
2022-10-05T22:18:41.808Z,100.00
2022-10-05T22:21:10.119Z,100.00
2022-10-05T22:23:36.656Z,100.00
2022-10-05T22:26:03.914Z,100.00
2022-10-05T22:28:33.010Z,100.00
2022-10-05T22:31:02.767Z,100.00
2022-10-05T22:33:29.077Z,100.00
2022-10-05T22:35:57.817Z,100.00
2022-10-05T22:38:25.863Z,100.00
2022-10-05T22:40:52.959Z,100.00
2022-10-05T22:43:19.435Z,100.00
2022-10-05T22:45:46.095Z,100.00
2022-10-05T22:48:12.794Z,100.00
2022-10-05T22:50:39.287Z,100.00
2022-10-05T22:53:05.990Z,100.00
2022-10-05T22:55:32.332Z,100.00
2022-10-05T22:57:59.724Z,100.00
2022-10-05T23:00:40.321Z,100.00
2022-10-05T23:03:12.756Z,100.00
2022-10-05T23:05:39.077Z,100.00
2022-10-05T23:08:05.365Z,100.00
2022-10-05T23:10:31.691Z,100.00
2022-10-05T23:13:00.809Z,100.00
2022-10-05T23:15:27.639Z,100.00
2022-10-05T23:17:53.958Z,100.00
2022-10-05T23:20:20.294Z,100.00
2022-10-05T23:22:46.575Z,100.00
2022-10-05T23:25:13.132Z,100.00
2022-10-05T23:27:41.504Z,100.00
2022-10-05T23:30:09.641Z,100.00
2022-10-05T23:32:41.219Z,100.00
2022-10-05T23:35:09.786Z,100.00
2022-10-05T23:37:38.026Z,100.00
2022-10-05T23:40:06.328Z,100.00
2022-10-05T23:42:32.744Z,100.00
2022-10-05T23:44:59.292Z,100.00
2022-10-05T23:47:25.915Z,100.00
2022-10-05T23:49:52.588Z,100.00
2022-10-05T23:52:19.030Z,100.00
2022-10-05T23:54:45.323Z,100.00
2022-10-05T23:57:19.202Z,100.00
2022-10-05T23:59:46.300Z,100.00
